Observations for CHRISTCHURCH IN, New Zealand (NZCH)

NZCH 170030Z AUTO 24009KT 9999 SCT014/// BKN028/// 09/06 Q0987 TEMPO FM0100 7000 SHRA BKN012
NZCH 170000Z AUTO 25009KT 9999 BKN027/// BKN070/// 08/07 Q0987  
NZCH 162330Z AUTO 23007KT 9999 FEW022/// BKN070/// 08/06 Q0987 NOSIG
NZCH 162300Z AUTO 24009KT 9999 SCT065/// 08/06 Q0987 NOSIG  
NZCH 162230Z AUTO 24009KT 9999 FEW035/// OVC065/// 08/06 Q0987 NOSIG
NZCH 162200Z AUTO 24009KT 9999 BKN070/// 07/06 Q0987 NOSIG  
NZCH 162130Z AUTO 23008KT 9999 FEW040/// SCT060/// BKN070/// 07/06 Q0986 NOSIG  
NZCH 162100Z AUTO 24007KT 9999 FEW014/// OVC070/// 06/05 Q0986 NOSIG
NZCH 162030Z AUTO 25006KT 9999 FEW041/// BKN075/// 06/05 Q0986 NOSIG
NZCH 162000Z AUTO 25007KT 9999 -RA FEW024/// SCT039/// OVC055/// 06/06 Q0986
NZCH 161930Z AUTO 23006KT 9999 SCT020/// BKN043/// 06/06 Q0986 NOSIG
NZCH 161900Z AUTO 24005KT 9999 OVC045/// 06/05 Q0985 NOSIG  
NZCH 161830Z AUTO 25006KT 9999 SCT016/// OVC046/// 06/05 Q0985 NOSIG
NZCH 161800Z AUTO 23003KT 9999 BKN014/// BKN021/// 06/05 Q0985 BECMG SCT014 BKN050  
NZCH 161730Z AUTO 21003KT 9999 BKN014/// BKN060/// BKN100/// 05/04 Q0985 BECMG SCT014 BKN050
NZCH 161700Z AUTO 25005KT 9999 -DZ SCT013/// BKN080/// BKN100/// 06/05 Q0985 NOSIG  
NZCH 161630Z AUTO 25005KT 230V290 9999 FEW033/// BKN080/// 06/05 Q0985 NOSIG
NZCH 161600Z AUTO 26005KT 9999 FEW012/// BKN026/// OVC100/// 06/05 Q0985 NOSIG  
NZCH 161530Z AUTO 24003KT 9999 SCT012/// OVC100/// 05/05 Q0985 NOSIG
NZCH 161500Z AUTO 24004KT 9999 FEW007/// 05/05 Q0985 NOSIG  
NZCH 161430Z AUTO 24008KT 9999 NCD 06/05 Q0985 NOSIG
NZCH 161400Z AUTO 24006KT 9999 NCD 05/05 Q0985 TEMPO 0500 FG BKN004 
NZCH 161330Z AUTO 25005KT 9999 OVC095/// 05/05 Q0985 TEMPO 0500 FG BKN004   
NZCH 161300Z AUTO 27004KT 9999 FEW003/// BKN090/// 05/05 Q0985 TEMPO 0500 FG BKN004 
NZCH 161230Z AUTO 25003KT 8000 BKN003/// 05/04 Q0985 TEMPO 0500 FG TEMPO SCT004 
NZCH 161200Z AUTO 25003KT 9000 MIFG OVC002/// 05/05 Q0985 TEMPO 0500 FG TEMPO SCT004
NZCH 161130Z AUTO 25002KT 0500 R02/P2000N R20/P2000N FG BKN004/// 03/03 Q0985   
NZCH 161100Z AUTO 28001KT 9999 MIFG SCT004/// 04/04 Q0985 TEMPO 0500 FG BKN004  
NZCH 161030Z AUTO 28003KT 9999 FEW005/// 05/05 Q0985 TEMPO BKN006 BECMG 04010KT 
NZCH 161000Z AUTO 26004KT 9999 NCD 05/05 Q0985 TEMPO BKN008 BECMG 04010KT   
NZCH 160930Z AUTO 27005KT 9999 NCD 05/05 Q0985 TEMPO BKN009 BECMG 04010KT   
NZCH 160900Z AUTO 23003KT 9999 BKN008/// 04/04 Q0985 BECMG 04010KT  
NZCH 160830Z AUTO 28002KT 9999 BKN009/// 04/04 Q0985 BECMG FM0900 04010KT   
NZCH 160800Z AUTO 25004KT 210V290 9999 NCD 06/05 Q0985 BECMG 04010KT
NZCH 160730Z AUTO 25005KT 9999 NCD 06/05 Q0985 BECMG FM0800 04010KT 
NZCH 160700Z AUTO 24005KT 9999 NCD 06/05 Q0985 BECMG FM0800 04010KT 
NZCH 160630Z AUTO 24005KT 9999 NCD 07/06 Q0984 NOSIG
NZCH 160600Z AUTO 23004KT 9999 NCD 07/06 Q0984 NOSIG
NZCH 160530Z AUTO 21005KT 9999 NCD 08/05 Q0984 NOSIG
NZCH 160500Z AUTO 18003KT 9999 NCD 09/06 Q0984 NOSIG
NZCH 160430Z AUTO 19003KT 9999 NCD 10/05 Q0984 NOSIG
NZCH 160400Z AUTO 10006KT 9999 NCD 11/05 Q0983 NOSIG
NZCH 160330Z AUTO 10003KT 9999 NCD 13/04 Q0983 NOSIG
NZCH 160300Z AUTO 04002KT 9999 NCD 15/04 Q0983 NOSIG
NZCH 160230Z AUTO 06003KT 9999 NCD 14/04 Q0983 NOSIG
NZCH 160200Z AUTO 13003KT 9999 NCD 13/03 Q0983 NOSIG
NZCH 160130Z AUTO 09004KT 060V130 9999 NCD 13/04 Q0983 NOSIG
NZCH 160100Z AUTO 09003KT 9999 NCD 11/05 Q0983 NOSIG
NZCH 160030Z AUTO 15002KT 9999 NCD 09/05 Q0983  
NZCH 160000Z AUTO 33001KT 9999 NCD 08/04 Q0984 NOSIG